sensor_id;sensor_type;location;lat;lon;timestamp;P1;durP1;ratioP1;P2;durP2;ratioP2
72601;SDS011;60644;55.858;37.390;2023-02-08T00:00:15;8.17;;;3.00;;
72601;SDS011;60644;55.858;37.390;2023-02-08T00:02:41;9.90;;;3.95;;
72601;SDS011;60644;55.858;37.390;2023-02-08T00:05:07;8.82;;;3.33;;
72601;SDS011;60644;55.858;37.390;2023-02-08T00:07:33;8.83;;;3.60;;
72601;SDS011;60644;55.858;37.390;2023-02-08T00:09:59;11.18;;;3.85;;
72601;SDS011;60644;55.858;37.390;2023-02-08T00:12:25;9.83;;;3.17;;
72601;SDS011;60644;55.858;37.390;2023-02-08T00:14:52;10.88;;;3.85;;
72601;SDS011;60644;55.858;37.390;2023-02-08T00:17:18;10.02;;;3.65;;
72601;SDS011;60644;55.858;37.390;2023-02-08T00:19:43;8.77;;;3.07;;
72601;SDS011;60644;55.858;37.390;2023-02-08T00:22:09;9.13;;;3.20;;
72601;SDS011;60644;55.858;37.390;2023-02-08T00:24:35;7.37;;;2.77;;
72601;SDS011;60644;55.858;37.390;2023-02-08T00:27:01;12.32;;;4.20;;
72601;SDS011;60644;55.858;37.390;2023-02-08T00:29:26;10.90;;;3.50;;
72601;SDS011;60644;55.858;37.390;2023-02-08T00:31:52;7.47;;;2.20;;
72601;SDS011;60644;55.858;37.390;2023-02-08T00:34:18;10.88;;;2.92;;
72601;SDS011;60644;55.858;37.390;2023-02-08T00:36:44;14.40;;;4.20;;
72601;SDS011;60644;55.858;37.390;2023-02-08T00:39:10;9.48;;;2.78;;
72601;SDS011;60644;55.858;37.390;2023-02-08T00:41:36;8.55;;;2.17;;
72601;SDS011;60644;55.858;37.390;2023-02-08T00:44:01;9.30;;;2.85;;
72601;SDS011;60644;55.858;37.390;2023-02-08T00:46:27;10.63;;;3.08;;
72601;SDS011;60644;55.858;37.390;2023-02-08T00:48:53;9.27;;;3.00;;
72601;SDS011;60644;55.858;37.390;2023-02-08T00:51:19;9.45;;;2.70;;
72601;SDS011;60644;55.858;37.390;2023-02-08T00:53:48;10.73;;;4.40;;
72601;SDS011;60644;55.858;37.390;2023-02-08T00:56:14;9.63;;;3.13;;
72601;SDS011;60644;55.858;37.390;2023-02-08T00:58:41;10.32;;;3.65;;
72601;SDS011;60644;55.858;37.390;2023-02-08T01:01:07;10.20;;;3.17;;
72601;SDS011;60644;55.858;37.390;2023-02-08T01:03:35;9.20;;;3.07;;
72601;SDS011;60644;55.858;37.390;2023-02-08T01:06:02;10.25;;;3.30;;
72601;SDS011;60644;55.858;37.390;2023-02-08T01:08:31;12.23;;;3.72;;
72601;SDS011;60644;55.858;37.390;2023-02-08T01:11:01;13.35;;;4.13;;
72601;SDS011;60644;55.858;37.390;2023-02-08T01:13:32;11.75;;;4.20;;
72601;SDS011;60644;55.858;37.390;2023-02-08T01:16:32;9.93;;;3.70;;
72601;SDS011;60644;55.858;37.390;2023-02-08T01:18:52;12.20;;;4.15;;
72601;SDS011;60644;55.858;37.390;2023-02-08T01:21:21;11.27;;;3.72;;
72601;SDS011;60644;55.858;37.390;2023-02-08T01:23:49;11.38;;;3.70;;
72601;SDS011;60644;55.858;37.390;2023-02-08T01:26:16;9.88;;;3.22;;
72601;SDS011;60644;55.858;37.390;2023-02-08T01:28:44;10.03;;;3.80;;
72601;SDS011;60644;55.858;37.390;2023-02-08T01:31:11;9.15;;;3.10;;
72601;SDS011;60644;55.858;37.390;2023-02-08T01:33:38;10.88;;;2.88;;
72601;SDS011;60644;55.858;37.390;2023-02-08T01:36:05;9.95;;;3.08;;
72601;SDS011;60644;55.858;37.390;2023-02-08T01:38:33;12.57;;;4.07;;
72601;SDS011;60644;55.858;37.390;2023-02-08T01:41:01;10.67;;;3.27;;
72601;SDS011;60644;55.858;37.390;2023-02-08T01:43:29;11.98;;;3.92;;
72601;SDS011;60644;55.858;37.390;2023-02-08T01:45:57;10.05;;;3.00;;
72601;SDS011;60644;55.858;37.390;2023-02-08T01:48:41;10.38;;;3.58;;
72601;SDS011;60644;55.858;37.390;2023-02-08T01:51:08;10.30;;;3.87;;
72601;SDS011;60644;55.858;37.390;2023-02-08T01:53:40;9.63;;;2.92;;
72601;SDS011;60644;55.858;37.390;2023-02-08T01:56:08;10.82;;;3.50;;
72601;SDS011;60644;55.858;37.390;2023-02-08T01:58:38;9.13;;;3.03;;
72601;SDS011;60644;55.858;37.390;2023-02-08T02:01:13;7.72;;;2.45;;
72601;SDS011;60644;55.858;37.390;2023-02-08T02:03:40;10.67;;;3.17;;
72601;SDS011;60644;55.858;37.390;2023-02-08T02:06:11;9.05;;;2.67;;
72601;SDS011;60644;55.858;37.390;2023-02-08T02:08:43;7.32;;;2.50;;
72601;SDS011;60644;55.858;37.390;2023-02-08T02:11:17;10.07;;;3.40;;
72601;SDS011;60644;55.858;37.390;2023-02-08T02:13:44;9.55;;;2.88;;
72601;SDS011;60644;55.858;37.390;2023-02-08T02:16:13;8.70;;;2.73;;
72601;SDS011;60644;55.858;37.390;2023-02-08T02:18:39;8.35;;;3.00;;
72601;SDS011;60644;55.858;37.390;2023-02-08T02:32:03;10.52;;;3.60;;
72601;SDS011;60644;55.858;37.390;2023-02-08T02:34:46;9.15;;;3.08;;
72601;SDS011;60644;55.858;37.390;2023-02-08T02:40:29;10.00;;;3.33;;
72601;SDS011;60644;55.858;37.390;2023-02-08T02:43:20;9.57;;;3.17;;
72601;SDS011;60644;55.858;37.390;2023-02-08T02:51:51;10.30;;;3.43;;
72601;SDS011;60644;55.858;37.390;2023-02-08T02:54:23;8.52;;;3.10;;
72601;SDS011;60644;55.858;37.390;2023-02-08T02:57:01;12.48;;;4.20;;
72601;SDS011;60644;55.858;37.390;2023-02-08T02:59:34;6.90;;;2.58;;
72601;SDS011;60644;55.858;37.390;2023-02-08T03:02:02;8.88;;;3.00;;
72601;SDS011;60644;55.858;37.390;2023-02-08T03:09:46;9.35;;;2.50;;
72601;SDS011;60644;55.858;37.390;2023-02-08T03:22:42;9.20;;;2.83;;
72601;SDS011;60644;55.858;37.390;2023-02-08T03:28:27;9.52;;;3.45;;
72601;SDS011;60644;55.858;37.390;2023-02-08T03:36:40;10.82;;;2.92;;
72601;SDS011;60644;55.858;37.390;2023-02-08T03:39:12;7.78;;;2.00;;
72601;SDS011;60644;55.858;37.390;2023-02-08T03:41:45;9.73;;;2.83;;
72601;SDS011;60644;55.858;37.390;2023-02-08T03:44:15;8.50;;;2.50;;
72601;SDS011;60644;55.858;37.390;2023-02-08T03:46:53;7.85;;;2.58;;
72601;SDS011;60644;55.858;37.390;2023-02-08T03:49:23;8.48;;;2.78;;
72601;SDS011;60644;55.858;37.390;2023-02-08T03:51:53;9.82;;;3.58;;
72601;SDS011;60644;55.858;37.390;2023-02-08T03:54:24;8.93;;;2.90;;
72601;SDS011;60644;55.858;37.390;2023-02-08T03:57:04;7.73;;;2.53;;
72601;SDS011;60644;55.858;37.390;2023-02-08T03:59:41;7.97;;;1.90;;
72601;SDS011;60644;55.858;37.390;2023-02-08T04:02:15;9.88;;;3.10;;
72601;SDS011;60644;55.858;37.390;2023-02-08T04:04:45;7.93;;;2.50;;
72601;SDS011;60644;55.858;37.390;2023-02-08T04:07:15;9.18;;;3.10;;
72601;SDS011;60644;55.858;37.390;2023-02-08T04:09:42;8.40;;;2.97;;
72601;SDS011;60644;55.858;37.390;2023-02-08T04:12:08;8.60;;;2.95;;
72601;SDS011;60644;55.858;37.390;2023-02-08T04:14:34;8.73;;;2.58;;
72601;SDS011;60644;55.858;37.390;2023-02-08T04:17:00;9.05;;;3.25;;
72601;SDS011;60644;55.858;37.390;2023-02-08T04:19:27;10.13;;;3.20;;
72601;SDS011;60644;55.858;37.390;2023-02-08T04:21:52;10.48;;;3.40;;
72601;SDS011;60644;55.858;37.390;2023-02-08T04:24:18;7.53;;;2.35;;
72601;SDS011;60644;55.858;37.390;2023-02-08T04:26:45;10.97;;;3.63;;
72601;SDS011;60644;55.858;37.390;2023-02-08T04:29:11;8.95;;;3.00;;
72601;SDS011;60644;55.858;37.390;2023-02-08T04:31:37;9.13;;;3.10;;
72601;SDS011;60644;55.858;37.390;2023-02-08T04:34:02;10.67;;;3.73;;
72601;SDS011;60644;55.858;37.390;2023-02-08T04:36:28;12.40;;;4.78;;
72601;SDS011;60644;55.858;37.390;2023-02-08T04:38:54;10.10;;;3.50;;
72601;SDS011;60644;55.858;37.390;2023-02-08T04:41:20;9.27;;;2.53;;
72601;SDS011;60644;55.858;37.390;2023-02-08T04:43:46;9.60;;;3.00;;
72601;SDS011;60644;55.858;37.390;2023-02-08T04:46:12;8.77;;;3.17;;
72601;SDS011;60644;55.858;37.390;2023-02-08T04:48:42;10.23;;;3.20;;
72601;SDS011;60644;55.858;37.390;2023-02-08T04:51:08;9.23;;;2.92;;
72601;SDS011;60644;55.858;37.390;2023-02-08T04:53:34;8.30;;;3.28;;
72601;SDS011;60644;55.858;37.390;2023-02-08T04:55:59;9.70;;;2.83;;
72601;SDS011;60644;55.858;37.390;2023-02-08T04:58:25;9.38;;;3.17;;
72601;SDS011;60644;55.858;37.390;2023-02-08T05:00:51;10.63;;;3.33;;
72601;SDS011;60644;55.858;37.390;2023-02-08T05:03:17;11.27;;;3.20;;
72601;SDS011;60644;55.858;37.390;2023-02-08T05:05:43;11.52;;;4.03;;
72601;SDS011;60644;55.858;37.390;2023-02-08T05:08:08;11.43;;;3.53;;
72601;SDS011;60644;55.858;37.390;2023-02-08T05:10:34;11.93;;;3.22;;
72601;SDS011;60644;55.858;37.390;2023-02-08T05:13:00;10.23;;;3.20;;
72601;SDS011;60644;55.858;37.390;2023-02-08T05:15:26;11.40;;;3.42;;
72601;SDS011;60644;55.858;37.390;2023-02-08T05:17:52;10.27;;;2.87;;
72601;SDS011;60644;55.858;37.390;2023-02-08T05:20:17;11.00;;;3.45;;
72601;SDS011;60644;55.858;37.390;2023-02-08T05:22:49;10.30;;;3.13;;
72601;SDS011;60644;55.858;37.390;2023-02-08T05:25:15;8.20;;;3.00;;
72601;SDS011;60644;55.858;37.390;2023-02-08T05:27:42;11.85;;;3.35;;
72601;SDS011;60644;55.858;37.390;2023-02-08T05:30:08;11.63;;;3.60;;
72601;SDS011;60644;55.858;37.390;2023-02-08T05:32:34;9.43;;;2.57;;
72601;SDS011;60644;55.858;37.390;2023-02-08T05:35:00;12.00;;;4.57;;
72601;SDS011;60644;55.858;37.390;2023-02-08T05:37:26;13.77;;;4.75;;
72601;SDS011;60644;55.858;37.390;2023-02-08T05:39:52;12.13;;;4.83;;
72601;SDS011;60644;55.858;37.390;2023-02-08T05:42:17;11.73;;;3.80;;
72601;SDS011;60644;55.858;37.390;2023-02-08T05:44:43;6.33;;;2.03;;
72601;SDS011;60644;55.858;37.390;2023-02-08T05:47:09;9.75;;;3.13;;
72601;SDS011;60644;55.858;37.390;2023-02-08T05:49:35;11.57;;;3.70;;
72601;SDS011;60644;55.858;37.390;2023-02-08T05:52:00;12.77;;;3.67;;
72601;SDS011;60644;55.858;37.390;2023-02-08T05:54:26;12.47;;;3.87;;
72601;SDS011;60644;55.858;37.390;2023-02-08T05:56:52;11.90;;;3.13;;
72601;SDS011;60644;55.858;37.390;2023-02-08T05:59:18;12.52;;;3.60;;
72601;SDS011;60644;55.858;37.390;2023-02-08T06:01:44;11.53;;;2.80;;
72601;SDS011;60644;55.858;37.390;2023-02-08T06:04:09;12.45;;;4.20;;
72601;SDS011;60644;55.858;37.390;2023-02-08T06:06:35;12.60;;;3.63;;
72601;SDS011;60644;55.858;37.390;2023-02-08T06:09:01;10.98;;;2.83;;
72601;SDS011;60644;55.858;37.390;2023-02-08T06:11:27;13.63;;;4.27;;
72601;SDS011;60644;55.858;37.390;2023-02-08T06:13:53;10.65;;;4.00;;
72601;SDS011;60644;55.858;37.390;2023-02-08T06:16:19;11.38;;;3.75;;
72601;SDS011;60644;55.858;37.390;2023-02-08T06:18:45;10.77;;;4.37;;
72601;SDS011;60644;55.858;37.390;2023-02-08T06:21:11;10.07;;;3.58;;
72601;SDS011;60644;55.858;37.390;2023-02-08T06:23:37;10.20;;;3.35;;
72601;SDS011;60644;55.858;37.390;2023-02-08T06:26:03;12.60;;;3.77;;
72601;SDS011;60644;55.858;37.390;2023-02-08T06:28:28;12.05;;;3.60;;
72601;SDS011;60644;55.858;37.390;2023-02-08T06:30:54;12.47;;;4.50;;
72601;SDS011;60644;55.858;37.390;2023-02-08T06:33:20;10.38;;;3.20;;
72601;SDS011;60644;55.858;37.390;2023-02-08T06:35:46;12.80;;;5.07;;
72601;SDS011;60644;55.858;37.390;2023-02-08T06:38:15;14.00;;;4.00;;
72601;SDS011;60644;55.858;37.390;2023-02-08T06:40:41;11.18;;;3.53;;
72601;SDS011;60644;55.858;37.390;2023-02-08T06:43:07;11.10;;;3.58;;
72601;SDS011;60644;55.858;37.390;2023-02-08T06:45:33;10.60;;;3.40;;
72601;SDS011;60644;55.858;37.390;2023-02-08T06:47:59;10.07;;;3.22;;
72601;SDS011;60644;55.858;37.390;2023-02-08T06:50:25;13.37;;;4.30;;
72601;SDS011;60644;55.858;37.390;2023-02-08T06:52:51;12.10;;;3.92;;
72601;SDS011;60644;55.858;37.390;2023-02-08T06:55:17;12.57;;;3.97;;
72601;SDS011;60644;55.858;37.390;2023-02-08T06:57:43;11.90;;;4.70;;
72601;SDS011;60644;55.858;37.390;2023-02-08T07:00:08;11.50;;;4.90;;
72601;SDS011;60644;55.858;37.390;2023-02-08T07:02:35;11.17;;;3.00;;
72601;SDS011;60644;55.858;37.390;2023-02-08T07:05:01;12.65;;;3.53;;
72601;SDS011;60644;55.858;37.390;2023-02-08T07:07:28;14.07;;;5.15;;
72601;SDS011;60644;55.858;37.390;2023-02-08T07:09:54;10.97;;;3.63;;
72601;SDS011;60644;55.858;37.390;2023-02-08T07:12:20;11.18;;;3.22;;
72601;SDS011;60644;55.858;37.390;2023-02-08T07:14:46;11.57;;;3.95;;
72601;SDS011;60644;55.858;37.390;2023-02-08T07:17:12;11.20;;;3.20;;
72601;SDS011;60644;55.858;37.390;2023-02-08T07:19:38;11.35;;;4.57;;
72601;SDS011;60644;55.858;37.390;2023-02-08T07:22:04;9.73;;;2.70;;
72601;SDS011;60644;55.858;37.390;2023-02-08T07:24:35;14.00;;;5.53;;
72601;SDS011;60644;55.858;37.390;2023-02-08T07:27:05;13.35;;;5.32;;
72601;SDS011;60644;55.858;37.390;2023-02-08T07:29:32;11.98;;;4.80;;
72601;SDS011;60644;55.858;37.390;2023-02-08T07:31:59;11.77;;;5.00;;
72601;SDS011;60644;55.858;37.390;2023-02-08T07:34:29;13.20;;;5.03;;
72601;SDS011;60644;55.858;37.390;2023-02-08T07:36:56;13.13;;;5.10;;
72601;SDS011;60644;55.858;37.390;2023-02-08T07:39:22;12.93;;;5.13;;
72601;SDS011;60644;55.858;37.390;2023-02-08T07:41:49;10.15;;;2.92;;
72601;SDS011;60644;55.858;37.390;2023-02-08T07:44:14;14.43;;;5.97;;
72601;SDS011;60644;55.858;37.390;2023-02-08T07:46:40;11.13;;;3.42;;
72601;SDS011;60644;55.858;37.390;2023-02-08T07:49:06;11.35;;;4.10;;
72601;SDS011;60644;55.858;37.390;2023-02-08T07:51:33;11.57;;;3.97;;
72601;SDS011;60644;55.858;37.390;2023-02-08T07:53:58;13.32;;;4.43;;
72601;SDS011;60644;55.858;37.390;2023-02-08T07:56:24;12.27;;;2.95;;
72601;SDS011;60644;55.858;37.390;2023-02-08T07:58:50;11.47;;;3.53;;
72601;SDS011;60644;55.858;37.390;2023-02-08T08:01:16;10.65;;;3.85;;
72601;SDS011;60644;55.858;37.390;2023-02-08T08:03:42;12.53;;;3.93;;
72601;SDS011;60644;55.858;37.390;2023-02-08T08:06:08;10.57;;;4.30;;
72601;SDS011;60644;55.858;37.390;2023-02-08T08:08:33;14.95;;;5.47;;
72601;SDS011;60644;55.858;37.390;2023-02-08T08:11:00;12.03;;;3.53;;
72601;SDS011;60644;55.858;37.390;2023-02-08T08:13:26;12.75;;;3.22;;
72601;SDS011;60644;55.858;37.390;2023-02-08T08:15:51;11.40;;;3.33;;
72601;SDS011;60644;55.858;37.390;2023-02-08T08:18:17;11.00;;;3.07;;
72601;SDS011;60644;55.858;37.390;2023-02-08T08:20:43;12.85;;;2.75;;
72601;SDS011;60644;55.858;37.390;2023-02-08T08:23:09;9.73;;;3.90;;
72601;SDS011;60644;55.858;37.390;2023-02-08T08:25:35;10.77;;;3.00;;
72601;SDS011;60644;55.858;37.390;2023-02-08T08:28:01;12.45;;;4.00;;
72601;SDS011;60644;55.858;37.390;2023-02-08T08:30:27;12.37;;;4.37;;
72601;SDS011;60644;55.858;37.390;2023-02-08T08:32:54;10.25;;;3.47;;
72601;SDS011;60644;55.858;37.390;2023-02-08T08:35:19;14.45;;;4.78;;
72601;SDS011;60644;55.858;37.390;2023-02-08T08:37:45;9.57;;;3.60;;
72601;SDS011;60644;55.858;37.390;2023-02-08T08:40:11;13.73;;;4.28;;
72601;SDS011;60644;55.858;37.390;2023-02-08T08:42:38;11.20;;;4.13;;
72601;SDS011;60644;55.858;37.390;2023-02-08T08:45:04;10.52;;;4.00;;
72601;SDS011;60644;55.858;37.390;2023-02-08T08:47:31;12.48;;;4.22;;
72601;SDS011;60644;55.858;37.390;2023-02-08T08:49:57;9.55;;;3.42;;
72601;SDS011;60644;55.858;37.390;2023-02-08T08:52:23;11.82;;;3.60;;
72601;SDS011;60644;55.858;37.390;2023-02-08T08:54:49;10.33;;;3.83;;
72601;SDS011;60644;55.858;37.390;2023-02-08T08:57:15;11.57;;;4.15;;
72601;SDS011;60644;55.858;37.390;2023-02-08T08:59:41;11.90;;;4.10;;
72601;SDS011;60644;55.858;37.390;2023-02-08T09:02:11;7.45;;;2.20;;
72601;SDS011;60644;55.858;37.390;2023-02-08T09:04:38;12.15;;;4.10;;
72601;SDS011;60644;55.858;37.390;2023-02-08T09:07:05;12.43;;;4.32;;
72601;SDS011;60644;55.858;37.390;2023-02-08T09:09:32;12.37;;;4.10;;
72601;SDS011;60644;55.858;37.390;2023-02-08T09:11:58;11.48;;;4.32;;
72601;SDS011;60644;55.858;37.390;2023-02-08T09:14:24;10.02;;;3.10;;
72601;SDS011;60644;55.858;37.390;2023-02-08T09:16:50;10.07;;;3.83;;
72601;SDS011;60644;55.858;37.390;2023-02-08T09:19:16;8.90;;;2.72;;
72601;SDS011;60644;55.858;37.390;2023-02-08T09:21:43;12.00;;;2.85;;
72601;SDS011;60644;55.858;37.390;2023-02-08T09:24:09;8.50;;;3.13;;
72601;SDS011;60644;55.858;37.390;2023-02-08T09:26:35;9.48;;;3.13;;
72601;SDS011;60644;55.858;37.390;2023-02-08T09:29:00;10.10;;;3.23;;
72601;SDS011;60644;55.858;37.390;2023-02-08T09:31:28;10.32;;;3.45;;
72601;SDS011;60644;55.858;37.390;2023-02-08T09:33:57;9.70;;;2.88;;
72601;SDS011;60644;55.858;37.390;2023-02-08T09:36:25;12.00;;;3.33;;
72601;SDS011;60644;55.858;37.390;2023-02-08T09:38:54;8.07;;;2.30;;
72601;SDS011;60644;55.858;37.390;2023-02-08T09:47:01;8.68;;;3.00;;
72601;SDS011;60644;55.858;37.390;2023-02-08T09:49:39;10.90;;;3.30;;
72601;SDS011;60644;55.858;37.390;2023-02-08T09:52:09;8.27;;;2.70;;
72601;SDS011;60644;55.858;37.390;2023-02-08T09:54:40;8.88;;;2.22;;
72601;SDS011;60644;55.858;37.390;2023-02-08T09:57:19;9.85;;;3.10;;
72601;SDS011;60644;55.858;37.390;2023-02-08T09:59:51;11.85;;;4.57;;
72601;SDS011;60644;55.858;37.390;2023-02-08T10:02:25;12.52;;;4.53;;
72601;SDS011;60644;55.858;37.390;2023-02-08T10:05:01;11.83;;;3.33;;
72601;SDS011;60644;55.858;37.390;2023-02-08T10:07:29;11.63;;;3.58;;
72601;SDS011;60644;55.858;37.390;2023-02-08T10:09:57;9.95;;;3.08;;
72601;SDS011;60644;55.858;37.390;2023-02-08T10:12:42;10.82;;;3.10;;
72601;SDS011;60644;55.858;37.390;2023-02-08T10:23:10;8.52;;;3.05;;
72601;SDS011;60644;55.858;37.390;2023-02-08T10:31:40;9.73;;;3.08;;
72601;SDS011;60644;55.858;37.390;2023-02-08T10:37:33;9.85;;;3.42;;
72601;SDS011;60644;55.858;37.390;2023-02-08T10:42:44;10.90;;;3.13;;
72601;SDS011;60644;55.858;37.390;2023-02-08T10:45:23;10.77;;;3.15;;
72601;SDS011;60644;55.858;37.390;2023-02-08T10:48:16;10.15;;;3.13;;
72601;SDS011;60644;55.858;37.390;2023-02-08T10:50:59;9.18;;;2.72;;
72601;SDS011;60644;55.858;37.390;2023-02-08T10:53:25;8.43;;;2.23;;
72601;SDS011;60644;55.858;37.390;2023-02-08T10:55:51;8.77;;;2.30;;
72601;SDS011;60644;55.858;37.390;2023-02-08T10:58:18;8.55;;;2.72;;
72601;SDS011;60644;55.858;37.390;2023-02-08T11:00:53;8.40;;;2.47;;
72601;SDS011;60644;55.858;37.390;2023-02-08T11:03:27;7.63;;;2.47;;
72601;SDS011;60644;55.858;37.390;2023-02-08T11:05:54;7.70;;;2.17;;
72601;SDS011;60644;55.858;37.390;2023-02-08T11:08:25;8.52;;;2.40;;
72601;SDS011;60644;55.858;37.390;2023-02-08T11:10:57;7.43;;;2.30;;
72601;SDS011;60644;55.858;37.390;2023-02-08T11:13:24;8.57;;;2.13;;
72601;SDS011;60644;55.858;37.390;2023-02-08T11:15:56;7.97;;;2.37;;
72601;SDS011;60644;55.858;37.390;2023-02-08T11:18:37;8.77;;;2.22;;
72601;SDS011;60644;55.858;37.390;2023-02-08T11:21:08;9.05;;;2.30;;
72601;SDS011;60644;55.858;37.390;2023-02-08T11:23:53;9.07;;;2.13;;
72601;SDS011;60644;55.858;37.390;2023-02-08T11:26:32;7.07;;;1.83;;
72601;SDS011;60644;55.858;37.390;2023-02-08T11:29:02;6.37;;;1.73;;
72601;SDS011;60644;55.858;37.390;2023-02-08T11:34:33;6.75;;;1.88;;
72601;SDS011;60644;55.858;37.390;2023-02-08T11:37:21;8.68;;;2.35;;
72601;SDS011;60644;55.858;37.390;2023-02-08T11:39:54;7.15;;;2.05;;
72601;SDS011;60644;55.858;37.390;2023-02-08T11:42:33;7.40;;;2.20;;
72601;SDS011;60644;55.858;37.390;2023-02-08T11:45:02;4.88;;;1.50;;
72601;SDS011;60644;55.858;37.390;2023-02-08T11:47:30;7.75;;;2.47;;
72601;SDS011;60644;55.858;37.390;2023-02-08T11:50:00;8.00;;;2.17;;
72601;SDS011;60644;55.858;37.390;2023-02-08T11:52:30;7.05;;;2.20;;
72601;SDS011;60644;55.858;37.390;2023-02-08T11:57:50;8.35;;;1.85;;
72601;SDS011;60644;55.858;37.390;2023-02-08T12:00:27;7.03;;;2.08;;
72601;SDS011;60644;55.858;37.390;2023-02-08T12:03:01;6.72;;;2.20;;
72601;SDS011;60644;55.858;37.390;2023-02-08T12:05:34;6.72;;;2.00;;
72601;SDS011;60644;55.858;37.390;2023-02-08T12:10:53;6.78;;;2.00;;
72601;SDS011;60644;55.858;37.390;2023-02-08T12:19:15;8.38;;;2.17;;
72601;SDS011;60644;55.858;37.390;2023-02-08T12:21:45;7.70;;;1.87;;
72601;SDS011;60644;55.858;37.390;2023-02-08T12:27:07;8.00;;;3.42;;
72601;SDS011;60644;55.858;37.390;2023-02-08T12:40:33;7.57;;;2.22;;
72601;SDS011;60644;55.858;37.390;2023-02-08T12:55:00;9.57;;;3.65;;
72601;SDS011;60644;55.858;37.390;2023-02-08T12:57:28;8.25;;;2.55;;
72601;SDS011;60644;55.858;37.390;2023-02-08T13:00:04;8.32;;;2.38;;
72601;SDS011;60644;55.858;37.390;2023-02-08T13:05:22;7.25;;;2.15;;
72601;SDS011;60644;55.858;37.390;2023-02-08T13:08:03;9.93;;;2.30;;
72601;SDS011;60644;55.858;37.390;2023-02-08T13:10:48;9.40;;;2.50;;
72601;SDS011;60644;55.858;37.390;2023-02-08T13:13:25;8.50;;;2.67;;
72601;SDS011;60644;55.858;37.390;2023-02-08T13:19:03;8.38;;;3.25;;
72601;SDS011;60644;55.858;37.390;2023-02-08T13:21:43;7.57;;;2.22;;
72601;SDS011;60644;55.858;37.390;2023-02-08T13:24:15;7.63;;;1.92;;
72601;SDS011;60644;55.858;37.390;2023-02-08T13:26:49;9.18;;;2.67;;
72601;SDS011;60644;55.858;37.390;2023-02-08T13:29:18;7.53;;;2.30;;
72601;SDS011;60644;55.858;37.390;2023-02-08T13:31:50;8.23;;;2.63;;
72601;SDS011;60644;55.858;37.390;2023-02-08T13:37:17;6.95;;;1.95;;
72601;SDS011;60644;55.858;37.390;2023-02-08T13:39:46;6.45;;;2.10;;
72601;SDS011;60644;55.858;37.390;2023-02-08T13:44:57;7.43;;;2.10;;
72601;SDS011;60644;55.858;37.390;2023-02-08T13:47:35;7.22;;;1.98;;
72601;SDS011;60644;55.858;37.390;2023-02-08T13:50:08;8.82;;;1.95;;
72601;SDS011;60644;55.858;37.390;2023-02-08T13:52:59;7.07;;;2.33;;
72601;SDS011;60644;55.858;37.390;2023-02-08T13:57:56;6.47;;;2.22;;
72601;SDS011;60644;55.858;37.390;2023-02-08T14:00:24;9.45;;;2.58;;
72601;SDS011;60644;55.858;37.390;2023-02-08T14:08:04;8.37;;;1.83;;
72601;SDS011;60644;55.858;37.390;2023-02-08T14:10:34;6.95;;;1.67;;
72601;SDS011;60644;55.858;37.390;2023-02-08T14:15:47;4.35;;;1.10;;
72601;SDS011;60644;55.858;37.390;2023-02-08T14:18:52;7.30;;;1.75;;
72601;SDS011;60644;55.858;37.390;2023-02-08T14:21:31;6.33;;;1.67;;
72601;SDS011;60644;55.858;37.390;2023-02-08T14:24:26;6.32;;;1.77;;
72601;SDS011;60644;55.858;37.390;2023-02-08T14:27:08;5.95;;;1.70;;
72601;SDS011;60644;55.858;37.390;2023-02-08T14:29:43;6.05;;;2.00;;
72601;SDS011;60644;55.858;37.390;2023-02-08T14:32:23;8.27;;;2.08;;
72601;SDS011;60644;55.858;37.390;2023-02-08T14:34:58;6.77;;;1.80;;
72601;SDS011;60644;55.858;37.390;2023-02-08T14:37:47;5.65;;;1.63;;
72601;SDS011;60644;55.858;37.390;2023-02-08T14:47:56;6.17;;;1.90;;
72601;SDS011;60644;55.858;37.390;2023-02-08T14:50:36;6.28;;;2.17;;
72601;SDS011;60644;55.858;37.390;2023-02-08T14:58:14;6.18;;;1.92;;
72601;SDS011;60644;55.858;37.390;2023-02-08T15:00:59;8.23;;;2.03;;
72601;SDS011;60644;55.858;37.390;2023-02-08T15:03:27;8.77;;;2.72;;
72601;SDS011;60644;55.858;37.390;2023-02-08T15:08:40;5.97;;;1.77;;
72601;SDS011;60644;55.858;37.390;2023-02-08T15:11:15;6.80;;;1.77;;
72601;SDS011;60644;55.858;37.390;2023-02-08T15:13:49;8.35;;;2.30;;
72601;SDS011;60644;55.858;37.390;2023-02-08T15:16:18;9.82;;;1.88;;
72601;SDS011;60644;55.858;37.390;2023-02-08T15:18:45;7.22;;;2.17;;
72601;SDS011;60644;55.858;37.390;2023-02-08T15:21:16;6.70;;;2.13;;
72601;SDS011;60644;55.858;37.390;2023-02-08T15:23:56;6.87;;;1.63;;
72601;SDS011;60644;55.858;37.390;2023-02-08T15:26:46;6.90;;;1.85;;
72601;SDS011;60644;55.858;37.390;2023-02-08T15:31:48;7.40;;;2.10;;
72601;SDS011;60644;55.858;37.390;2023-02-08T15:34:16;6.22;;;1.58;;
72601;SDS011;60644;55.858;37.390;2023-02-08T15:36:44;7.93;;;1.93;;
72601;SDS011;60644;55.858;37.390;2023-02-08T15:39:24;7.22;;;2.00;;
72601;SDS011;60644;55.858;37.390;2023-02-08T15:42:05;8.45;;;2.00;;
72601;SDS011;60644;55.858;37.390;2023-02-08T15:44:41;5.72;;;1.70;;
72601;SDS011;60644;55.858;37.390;2023-02-08T15:47:12;6.22;;;2.00;;
72601;SDS011;60644;55.858;37.390;2023-02-08T15:49:44;5.60;;;1.60;;
72601;SDS011;60644;55.858;37.390;2023-02-08T15:52:14;6.95;;;2.03;;
72601;SDS011;60644;55.858;37.390;2023-02-08T15:54:42;7.78;;;2.70;;
72601;SDS011;60644;55.858;37.390;2023-02-08T15:57:28;7.45;;;2.13;;
72601;SDS011;60644;55.858;37.390;2023-02-08T15:59:58;6.55;;;2.28;;
72601;SDS011;60644;55.858;37.390;2023-02-08T16:02:29;8.27;;;2.40;;
72601;SDS011;60644;55.858;37.390;2023-02-08T16:04:58;6.40;;;1.75;;
72601;SDS011;60644;55.858;37.390;2023-02-08T16:09:54;7.45;;;2.22;;
72601;SDS011;60644;55.858;37.390;2023-02-08T16:12:22;7.35;;;1.92;;
72601;SDS011;60644;55.858;37.390;2023-02-08T16:14:49;7.30;;;2.20;;
72601;SDS011;60644;55.858;37.390;2023-02-08T16:17:35;5.63;;;1.40;;
72601;SDS011;60644;55.858;37.390;2023-02-08T16:20:22;5.88;;;1.98;;
72601;SDS011;60644;55.858;37.390;2023-02-08T16:23:00;6.88;;;1.80;;
72601;SDS011;60644;55.858;37.390;2023-02-08T16:25:33;6.78;;;2.08;;
72601;SDS011;60644;55.858;37.390;2023-02-08T16:28:16;7.90;;;1.97;;
72601;SDS011;60644;55.858;37.390;2023-02-08T16:30:47;7.07;;;1.52;;
72601;SDS011;60644;55.858;37.390;2023-02-08T16:33:13;6.25;;;1.52;;
72601;SDS011;60644;55.858;37.390;2023-02-08T16:35:39;7.80;;;1.77;;
72601;SDS011;60644;55.858;37.390;2023-02-08T16:38:05;6.83;;;1.87;;
72601;SDS011;60644;55.858;37.390;2023-02-08T16:40:47;6.90;;;1.75;;
72601;SDS011;60644;55.858;37.390;2023-02-08T16:43:25;6.40;;;1.60;;
72601;SDS011;60644;55.858;37.390;2023-02-08T16:48:35;7.67;;;1.87;;
72601;SDS011;60644;55.858;37.390;2023-02-08T16:51:29;7.47;;;2.10;;
72601;SDS011;60644;55.858;37.390;2023-02-08T16:54:00;6.90;;;1.77;;
72601;SDS011;60644;55.858;37.390;2023-02-08T16:56:30;8.32;;;2.10;;
72601;SDS011;60644;55.858;37.390;2023-02-08T16:58:59;8.50;;;2.17;;
72601;SDS011;60644;55.858;37.390;2023-02-08T17:01:25;7.17;;;2.07;;
72601;SDS011;60644;55.858;37.390;2023-02-08T17:03:52;6.50;;;2.17;;
72601;SDS011;60644;55.858;37.390;2023-02-08T17:06:32;9.90;;;3.28;;
72601;SDS011;60644;55.858;37.390;2023-02-08T17:09:03;12.20;;;3.20;;
72601;SDS011;60644;55.858;37.390;2023-02-08T17:11:30;9.20;;;2.58;;
72601;SDS011;60644;55.858;37.390;2023-02-08T17:13:57;9.33;;;2.70;;
72601;SDS011;60644;55.858;37.390;2023-02-08T17:16:24;9.27;;;3.40;;
72601;SDS011;60644;55.858;37.390;2023-02-08T17:18:53;8.45;;;2.53;;